Verbier, Switzerland
Current Conditions -  °F | °C
As of 5:20 PM on Monday 22 Dec 2014 (Local Time) from LSGS Reporting Station
Clear Clear  
Wind Chill: 37°   Ceiling: Unl
Heat Index: 37°   Visibility: 6mi
Dew Point: 28°   Wind: 1mph
Humidity: 70%   Direction: NA
Pressure: 30.42"   Gusts: NA
Location:  46.1°N, 7.23°E
Report Text: LSGS 221620Z VRB01KT CAVOK 03/M02 Q1030
Loading
Personal Weather Stations






























Interactive Weather Map New forecast layout! Learn more

10-Day Weather Forecast

Advertisements
Track Severe Weather on mobile